Time;durP1;ratioP1;P1;durP2;ratioP2;P2;SDS_P1;SDS_P2;PMS_P1;PMS_P2;Temp;Humidity;BMP_temperature;BMP_pressure;BME280_temperature;BME280_humidity;BME280_pressure;Samples;Min_cycle;Max_cycle;Signal;HPM_P1;HPM_P2
2022/11/27 00:01:43;;;;;;;14.35;5.47;;;;;;;4.70;58.13;102538.63;5014789;28;20041;-69
2022/11/27 00:04:11;;;;;;;20.67;5.05;;;;;;;4.66;58.06;102536.84;5016312;28;20029;-68
2022/11/27 00:06:39;;;;;;;11.80;4.47;;;;;;;4.87;57.39;102535.34;5001792;28;20103;-69
2022/11/27 00:09:09;;;;;;;20.75;6.07;;;;;;;4.68;58.17;102535.16;5016545;28;20567;-67
2022/11/27 00:11:34;;;;;;;15.32;5.78;;;;;;;4.83;57.69;102547.38;5013161;28;20127;-66
2022/11/27 00:14:00;;;;;;;14.75;4.53;;;;;;;4.55;58.27;102535.88;5015463;28;20033;-68
2022/11/27 00:16:26;;;;;;;10.45;4.57;;;;;;;4.80;57.99;102537.00;5025151;28;20053;-68
2022/11/27 00:18:52;;;;;;;15.73;5.47;;;;;;;4.65;58.50;102529.91;5030399;28;20286;-65
2022/11/27 00:21:23;;;;;;;15.30;4.72;;;;;;;4.95;57.50;102537.19;5013226;28;20044;-66
2022/11/27 00:23:51;;;;;;;20.60;5.33;;;;;;;4.96;56.87;102535.47;5009698;28;20037;-70
2022/11/27 00:26:17;;;;;;;20.00;5.25;;;;;;;4.87;57.12;102537.94;5013344;28;20064;-69
2022/11/27 00:28:42;;;;;;;11.85;4.22;;;;;;;4.90;56.55;102527.63;5012383;28;20060;-69
2022/11/27 00:31:14;;;;;;;22.40;5.15;;;;;;;4.60;58.16;102513.47;5014651;28;20050;-70
2022/11/27 00:33:39;;;;;;;12.77;4.95;;;;;;;4.89;57.22;102518.13;5012028;28;20123;-67
2022/11/27 00:36:07;;;;;;;13.80;4.57;;;;;;;4.87;57.19;102519.81;5015053;28;20575;-70
2022/11/27 00:38:32;;;;;;;12.82;4.57;;;;;;;4.83;57.05;102517.19;5012468;28;20045;-70
2022/11/27 00:41:04;;;;;;;10.07;4.57;;;;;;;4.81;56.67;102518.91;5013721;28;20057;-66
2022/11/27 00:43:30;;;;;;;;;;;;;;;4.81;56.86;102518.00;5015303;28;20041;-68
2022/11/27 00:45:55;;;;;;;24.08;5.05;;;;;;;4.74;57.18;102521.38;5008165;28;19952;-66
2022/11/27 00:48:21;;;;;;;15.38;4.70;;;;;;;4.67;56.85;102523.03;5012204;28;20200;-68
2022/11/27 00:50:46;;;;;;;12.63;4.80;;;;;;;4.64;56.97;102515.25;5010361;28;20123;-69
2022/11/27 00:53:11;;;;;;;16.92;5.38;;;;;;;4.65;56.52;102511.78;5028761;28;20025;-72
2022/11/27 00:55:37;;;;;;;12.75;5.22;;;;;;;4.57;56.57;102516.91;5007648;28;20053;-75
2022/11/27 00:58:02;;;;;;;14.48;4.43;;;;;;;4.50;56.75;102515.09;4999192;28;20357;-76
2022/11/27 01:00:28;;;;;;;11.77;4.20;;;;;;;4.54;56.85;102514.28;5012471;28;20053;-72
2022/11/27 01:02:53;;;;;;;14.23;4.25;;;;;;;4.43;57.41;102514.16;5010824;28;20048;-73
2022/11/27 01:05:19;;;;;;;16.73;4.35;;;;;;;4.43;57.18;102526.22;5014604;28;20035;-73
2022/11/27 01:07:44;;;;;;;14.07;3.50;;;;;;;4.32;57.51;102512.25;4995761;28;20358;-72
2022/11/27 01:10:11;;;;;;;13.15;4.30;;;;;;;4.39;56.99;102520.13;5013859;28;20101;-72
2022/11/27 01:12:37;;;;;;;17.00;4.75;;;;;;;4.39;56.71;102520.13;5010407;28;20092;-69
2022/11/27 01:15:03;;;;;;;13.77;3.35;;;;;;;4.33;56.96;102520.06;5013988;28;20041;-69
2022/11/27 01:17:28;;;;;;;13.35;4.95;;;;;;;4.29;56.66;102514.81;5010400;28;20068;-69
2022/11/27 01:19:53;;;;;;;16.65;4.70;;;;;;;3.89;57.72;102512.56;5012375;28;20110;-67
2022/11/27 01:22:19;;;;;;;18.08;5.47;;;;;;;4.14;56.93;102507.72;5011157;28;20386;-68
2022/11/27 01:24:45;;;;;;;14.23;3.97;;;;;;;4.07;56.38;102516.25;5012018;28;20308;-67
2022/11/27 01:27:10;;;;;;;20.55;4.70;;;;;;;4.01;56.81;102507.56;4992742;28;20060;-69
2022/11/27 01:29:36;;;;;;;8.60;3.75;;;;;;;3.98;56.34;102502.38;5010359;28;20117;-70
2022/11/27 01:32:01;;;;;;;12.82;4.40;;;;;;;3.97;56.74;102500.63;5014045;28;20045;-70
2022/11/27 01:34:27;;;;;;;9.25;3.83;;;;;;;3.84;56.86;102496.13;5012728;28;20049;-70
2022/11/27 01:36:52;;;;;;;16.75;4.32;;;;;;;3.82;56.76;102494.38;5010549;28;20045;-70
2022/11/27 01:39:19;;;;;;;13.57;4.00;;;;;;;3.79;56.80;102487.44;5011993;28;20033;-70
2022/11/27 01:41:46;;;;;;;17.73;4.65;;;;;;;3.73;57.11;102485.63;5027837;28;20045;-69
2022/11/27 01:44:27;;;;;;;16.73;4.50;;;;;;;3.72;56.91;102478.72;5014185;28;20030;-67
2022/11/27 01:46:57;;;;;;;14.70;4.45;;;;;;;3.58;57.36;102485.38;5012034;28;20057;-68
2022/11/27 01:49:37;;;;;;;15.18;4.30;;;;;;;3.58;57.29;102481.09;5013336;28;20044;-69
2022/11/27 01:52:02;;;;;;;17.08;4.38;;;;;;;3.57;57.40;102481.06;5011978;28;20045;-68
2022/11/27 01:54:34;;;;;;;18.25;4.38;;;;;;;3.59;57.08;102479.38;5012912;28;20337;-68
2022/11/27 01:57:05;;;;;;;13.40;3.85;;;;;;;3.56;57.06;102487.97;5008427;28;20057;-69
2022/11/27 01:59:31;;;;;;;9.13;3.70;;;;;;;3.53;56.79;102487.03;5012344;28;20037;-71
2022/11/27 02:01:57;;;;;;;8.43;3.70;;;;;;;3.51;56.96;102486.16;5008410;28;20068;-72
2022/11/27 02:04:22;;;;;;;9.63;3.70;;;;;;;3.51;57.00;102481.84;5013757;28;20462;-71
2022/11/27 02:06:48;;;;;;;11.98;4.88;;;;;;;3.48;56.87;102480.94;5011723;28;20449;-74
2022/11/27 02:09:13;;;;;;;16.98;4.45;;;;;;;3.41;57.32;102484.28;5012074;28;20029;-70
2022/11/27 02:12:08;;;;;;;8.65;3.47;;;;;;;3.43;57.10;102477.44;5009747;28;20402;-68
2022/11/27 02:14:33;;;;;;;18.15;4.38;;;;;;;3.30;57.42;102484.09;5011752;28;20044;-69
2022/11/27 02:17:17;;;;;;;8.73;4.28;;;;;;;3.31;57.08;102475.50;5010964;28;20517;-68
2022/11/27 02:19:42;;;;;;;8.95;3.42;;;;;;;3.25;57.14;102480.53;5009673;28;20357;-69
2022/11/27 02:22:35;;;;;;;18.23;4.03;;;;;;;3.22;57.34;102477.91;5012833;28;20531;-68
2022/11/27 02:25:00;;;;;;;13.88;3.90;;;;;;;3.17;57.13;102481.28;5027036;28;20041;-69
2022/11/27 02:27:48;;;;;;;13.75;4.20;;;;;;;3.13;56.69;102476.91;5012058;28;20099;-69
2022/11/27 02:30:14;;;;;;;9.38;4.00;;;;;;;3.08;57.02;102486.28;5008306;28;20715;-69
2022/11/27 02:32:50;;;;;;;14.55;4.40;;;;;;;3.04;57.34;102481.91;5012403;28;20033;-68
2022/11/27 02:35:27;;;;;;;11.48;4.28;;;;;;;3.03;57.32;102476.75;5010707;28;20128;-70
2022/11/27 02:38:05;;;;;;;12.32;3.33;;;;;;;2.98;57.36;102464.59;5009951;28;20048;-71
2022/11/27 02:40:53;;;;;;;13.07;3.28;;;;;;;2.91;57.59;102465.34;5011107;28;20068;-70
2022/11/27 02:43:38;;;;;;;10.90;4.50;;;;;;;2.94;57.43;102459.38;5006038;28;20045;-69
2022/11/27 02:46:06;;;;;;;12.70;3.70;;;;;;;2.88;57.61;102459.25;5013129;28;20049;-70
2022/11/27 02:48:37;;;;;;;14.63;3.95;;;;;;;2.89;57.01;102450.66;5010888;28;20034;-69
2022/11/27 02:51:05;;;;;;;16.13;3.75;;;;;;;2.75;57.16;102456.44;5012169;28;20045;-69
2022/11/27 02:53:36;;;;;;;14.30;4.10;;;;;;;2.65;57.86;102451.97;5011494;28;20486;-69
2022/11/27 02:56:07;;;;;;;12.63;3.30;;;;;;;2.47;58.72;102446.47;5009039;28;20451;-68
2022/11/27 02:58:36;;;;;;;12.55;3.75;;;;;;;2.61;58.87;102445.00;5012593;28;20040;-69
2022/11/27 03:01:05;;;;;;;12.10;4.35;;;;;;;2.76;58.21;102445.28;5011207;28;20684;-69
2022/11/27 03:03:39;;;;;;;16.05;4.13;;;;;;;2.84;57.63;102436.78;5012399;28;20398;-67
2022/11/27 03:06:16;;;;;;;7.50;3.28;;;;;;;2.87;57.41;102431.69;5011293;28;20109;-68
2022/11/27 03:08:48;;;;;;;9.10;4.60;;;;;;;2.72;57.76;102437.47;5012024;28;20033;-69
2022/11/27 03:11:15;;;;;;;13.63;3.92;;;;;;;2.49;58.07;102435.31;4977083;28;20051;-69
2022/11/27 03:13:52;;;;;;;10.38;3.90;;;;;;;2.57;58.46;102427.72;5016858;28;20100;-71
2022/11/27 03:16:44;;;;;;;10.60;4.25;;;;;;;2.55;58.04;102421.66;5010397;28;20073;-69
2022/11/27 03:19:21;;;;;;;9.45;4.05;;;;;;;2.56;57.81;102418.25;4967395;28;20220;-69
2022/11/27 03:21:59;;;;;;;14.95;3.80;;;;;;;2.47;57.62;102420.66;5007121;28;20041;-69
2022/11/27 03:24:24;;;;;;;12.10;3.45;;;;;;;2.45;58.26;102418.03;5009127;28;20034;-69
2022/11/27 03:26:50;;;;;;;9.38;3.58;;;;;;;2.35;58.46;102424.75;5010740;28;20054;-68
2022/11/27 03:29:24;;;;;;;7.18;3.65;;;;;;;2.47;57.82;102421.53;5011699;28;20387;-69
2022/11/27 03:31:50;;;;;;;17.20;4.70;;;;;;;2.47;58.11;102418.06;5010494;28;20613;-69
2022/11/27 03:34:16;;;;;;;10.30;3.10;;;;;;;2.40;57.80;102416.19;5009586;28;20042;-69
2022/11/27 03:36:41;;;;;;;11.82;4.55;;;;;;;2.34;58.03;102414.38;5010031;28;20049;-69
2022/11/27 03:39:08;;;;;;;17.35;3.85;;;;;;;2.10;58.67;102409.63;5013044;28;20033;-69
2022/11/27 03:41:40;;;;;;;8.52;3.50;;;;;;;2.44;58.01;102410.25;5009068;28;20053;-68
2022/11/27 03:44:24;;;;;;;12.02;3.22;;;;;;;2.31;57.87;102410.03;5012355;28;20107;-69
2022/11/27 03:46:57;;;;;;;16.98;3.50;;;;;;;2.33;57.95;102407.47;5010586;28;20072;-69
2022/11/27 03:49:47;;;;;;;13.07;4.18;;;;;;;2.38;57.60;102402.41;5008514;28;20037;-69
2022/11/27 03:52:42;;;;;;;10.13;4.03;;;;;;;2.25;57.58;102404.75;5009269;28;20048;-68
2022/11/27 03:55:14;;;;;;;19.58;3.75;;;;;;;2.23;57.91;102401.28;5010711;28;20098;-69
2022/11/27 03:57:49;;;;;;;9.98;3.60;;;;;;;2.37;57.82;102398.94;5008661;28;20053;-70
2022/11/27 04:00:15;;;;;;;5.78;2.97;;;;;;;2.14;58.15;102395.94;5008795;28;20057;-69
2022/11/27 04:02:48;;;;;;;8.20;3.97;;;;;;;2.34;57.34;102384.28;5022928;28;20032;-67
2022/11/27 04:05:14;;;;;;;11.98;2.38;;;;;;;2.33;57.51;102392.00;5010155;28;20033;-64
2022/11/27 04:07:40;;;;;;;8.25;2.95;;;;;;;2.06;58.09;102389.75;5009417;28;20033;-66
2022/11/27 04:10:06;;;;;;;8.68;3.13;;;;;;;2.02;58.63;102382.78;5010431;28;20443;-65
2022/11/27 04:12:32;;;;;;;11.00;3.35;;;;;;;2.26;58.27;102380.69;5008576;28;20033;-64
2022/11/27 04:14:57;;;;;;;6.68;2.83;;;;;;;2.26;57.53;102377.25;5010680;28;20114;-65
2022/11/27 04:17:23;;;;;;;17.00;3.47;;;;;;;1.85;58.93;102373.03;5009301;28;20049;-65
2022/11/27 04:19:48;;;;;;;11.07;3.55;;;;;;;1.88;58.94;102367.03;5010882;28;20407;-66
2022/11/27 04:22:14;;;;;;;17.65;3.70;;;;;;;2.11;58.11;102367.53;5008710;28;20407;-65
2022/11/27 04:24:39;;;;;;;13.18;4.07;;;;;;;2.07;58.21;102365.72;5007549;28;20037;-65
2022/11/27 04:27:05;;;;;;;6.93;2.83;;;;;;;2.27;57.73;102368.69;5009594;28;20092;-67
2022/11/27 04:29:30;;;;;;;9.77;3.42;;;;;;;2.32;57.42;102365.31;5013755;28;20047;-66
2022/11/27 04:31:56;;;;;;;11.30;2.47;;;;;;;2.23;57.65;102354.84;5013391;28;20168;-66
2022/11/27 04:34:22;;;;;;;9.20;2.95;;;;;;;2.02;58.26;102359.56;5013028;28;20041;-65
2022/11/27 04:36:47;;;;;;;10.02;3.40;;;;;;;2.07;58.19;102357.97;5028920;28;20057;-66
2022/11/27 04:39:13;;;;;;;8.32;2.80;;;;;;;2.30;57.37;102348.94;5015855;28;20099;-64
2022/11/27 04:41:38;;;;;;;12.38;3.08;;;;;;;2.31;57.41;102347.22;5010028;28;20423;-64
2022/11/27 04:44:04;;;;;;;12.68;3.33;;;;;;;2.24;57.53;102335.97;5015063;28;20036;-66
2022/11/27 04:46:30;;;;;;;17.95;3.90;;;;;;;2.04;57.90;102326.94;5011918;28;20047;-69
2022/11/27 04:48:56;;;;;;;14.10;3.65;;;;;;;2.21;57.49;102320.41;5012934;28;21406;-69
2022/11/27 04:51:22;;;;;;;8.93;3.40;;;;;;;1.98;57.56;102321.72;5013250;28;20049;-69
2022/11/27 04:53:47;;;;;;;8.90;2.65;;;;;;;2.24;57.45;102320.47;5012496;28;20030;-70
2022/11/27 04:56:13;;;;;;;5.55;2.58;;;;;;;2.22;57.89;102318.69;5015343;28;20053;-66
2022/11/27 04:58:38;;;;;;;9.38;2.83;;;;;;;1.99;58.00;102315.69;5011884;28;20392;-68
2022/11/27 05:01:04;;;;;;;13.65;2.70;;;;;;;2.19;57.61;102311.75;5029510;28;20038;-68
2022/11/27 05:03:29;;;;;;;9.80;2.55;;;;;;;2.01;58.39;102314.00;5013591;28;20059;-67
2022/11/27 05:05:56;;;;;;;8.00;3.22;;;;;;;2.17;57.91;102310.00;5011505;28;20579;-68
2022/11/27 05:08:23;;;;;;;11.05;3.58;;;;;;;1.88;58.79;102303.44;5013759;28;20045;-68
2022/11/27 05:11:00;;;;;;;12.48;3.47;;;;;;;2.35;57.32;102302.56;5013664;28;20060;-67
2022/11/27 05:13:25;;;;;;;7.13;3.13;;;;;;;2.40;56.70;102300.97;5011909;28;20453;-66
2022/11/27 05:15:51;;;;;;;12.60;3.83;;;;;;;2.20;57.71;102291.97;5013655;28;20049;-67
2022/11/27 05:18:16;;;;;;;11.85;2.45;;;;;;;2.28;57.86;102301.59;5011695;28;20848;-68
2022/11/27 05:20:42;;;;;;;7.70;3.17;;;;;;;2.56;56.41;102302.94;5013074;28;20517;-67
2022/11/27 05:23:07;;;;;;;8.10;3.03;;;;;;;2.45;57.29;102304.47;5014615;28;20546;-67
2022/11/27 05:25:32;;;;;;;6.22;3.20;;;;;;;2.63;56.48;102309.06;5012316;28;20075;-68
2022/11/27 05:27:58;;;;;;;9.77;3.30;;;;;;;2.53;56.88;102305.50;5012481;28;20060;-67
2022/11/27 05:30:23;;;;;;;11.73;2.92;;;;;;;2.69;56.36;102313.44;5012300;28;20707;-68
2022/11/27 05:32:49;;;;;;;9.88;2.70;;;;;;;2.83;55.96;102308.53;5012799;28;20530;-66
2022/11/27 05:35:14;;;;;;;11.05;3.13;;;;;;;2.54;56.57;102314.97;5011337;28;20041;-68
2022/11/27 05:37:40;;;;;;;12.77;3.42;;;;;;;2.48;56.65;102309.69;5012312;28;20029;-68
2022/11/27 05:40:06;;;;;;;9.43;2.75;;;;;;;2.86;55.98;102311.16;5012899;28;20156;-69
2022/11/27 05:42:31;;;;;;;9.68;3.35;;;;;;;2.75;55.70;102305.81;5012455;28;20093;-68
2022/11/27 05:44:57;;;;;;;8.57;3.38;;;;;;;2.73;56.17;102289.44;5010248;28;20037;-68
2022/11/27 05:47:22;;;;;;;6.88;2.97;;;;;;;2.84;55.85;102289.59;5013478;28;20037;-68
2022/11/27 05:49:47;;;;;;;8.00;2.85;;;;;;;2.44;56.60;102295.00;5012838;28;20033;-68
2022/11/27 05:52:13;;;;;;;9.35;3.45;;;;;;;2.76;55.89;102290.34;5012391;28;20382;-68
2022/11/27 05:54:39;;;;;;;8.90;3.78;;;;;;;2.79;55.44;102294.69;5009600;28;20033;-69
2022/11/27 05:57:05;;;;;;;10.95;3.30;;;;;;;2.77;55.59;102292.06;5013256;28;20304;-69
2022/11/27 05:59:30;;;;;;;10.55;2.85;;;;;;;2.69;55.52;102292.81;5010887;28;20425;-70
2022/11/27 06:01:56;;;;;;;7.10;3.70;;;;;;;2.71;55.98;102279.09;5011908;28;20289;-70
2022/11/27 06:04:21;;;;;;;10.70;3.67;;;;;;;2.87;55.04;102281.91;5011124;28;20037;-71
2022/11/27 06:06:47;;;;;;;13.07;3.38;;;;;;;2.46;56.10;102279.53;5011591;28;20048;-70
2022/11/27 06:09:15;;;;;;;11.88;3.65;;;;;;;2.89;54.82;102278.50;5012728;28;20116;-69
2022/11/27 06:11:41;;;;;;;11.25;3.88;;;;;;;2.79;55.38;102278.34;5011615;28;20056;-70
2022/11/27 06:14:10;;;;;;;12.23;4.32;;;;;;;2.81;55.07;102286.97;5014254;28;20091;-69
2022/11/27 06:16:35;;;;;;;10.98;2.92;;;;;;;2.95;54.69;102277.72;5010310;28;20057;-69
2022/11/27 06:19:01;;;;;;;7.82;3.13;;;;;;;2.93;54.84;102274.22;5013685;28;20510;-69
2022/11/27 06:21:27;;;;;;;4.85;3.08;;;;;;;2.38;56.19;102278.53;5009397;28;20443;-69
2022/11/27 06:23:54;;;;;;;12.15;3.50;;;;;;;2.70;55.21;102269.59;5027494;28;20033;-68
2022/11/27 06:26:22;;;;;;;8.63;3.47;;;;;;;2.79;54.75;102271.44;5026901;28;20311;-68
2022/11/27 06:28:49;;;;;;;18.42;3.75;;;;;;;2.77;55.00;102266.25;5012540;28;20087;-68
2022/11/27 06:31:18;;;;;;;7.32;2.88;;;;;;;2.55;55.36;102267.66;5011732;28;20464;-69
2022/11/27 06:33:48;;;;;;;8.23;3.47;;;;;;;2.74;55.11;102271.38;5012846;28;20210;-70
2022/11/27 06:36:13;;;;;;;12.00;3.20;;;;;;;2.74;54.97;102266.22;5006578;28;20081;-67
2022/11/27 06:38:39;;;;;;;8.82;2.78;;;;;;;2.44;55.78;102263.16;5011881;28;20129;-66
2022/11/27 06:41:13;;;;;;;12.40;3.80;;;;;;;2.22;56.42;102265.41;5001065;28;20049;-69
2022/11/27 06:43:39;;;;;;;9.88;3.75;;;;;;;2.63;55.00;102252.28;5009971;28;20045;-70
2022/11/27 06:46:06;;;;;;;10.90;4.15;;;;;;;2.53;54.96;102255.56;5008552;28;20037;-66
2022/11/27 06:48:32;;;;;;;7.03;3.45;;;;;;;2.53;54.94;102258.13;5010931;28;20041;-69
2022/11/27 06:51:01;;;;;;;6.30;2.72;;;;;;;2.58;54.82;102256.53;5007180;28;20041;-69
2022/11/27 06:53:31;;;;;;;8.70;3.42;;;;;;;2.38;55.53;102253.63;5010689;28;20200;-67
2022/11/27 06:55:57;;;;;;;7.63;3.70;;;;;;;2.83;54.28;102262.06;5010005;28;20049;-68
2022/11/27 06:58:23;;;;;;;5.70;2.88;;;;;;;2.74;54.12;102255.91;5010108;28;20037;-68
2022/11/27 07:00:48;;;;;;;14.23;3.58;;;;;;;2.67;54.38;102248.06;5010074;28;20049;-68
2022/11/27 07:03:14;;;;;;;8.35;3.85;;;;;;;2.82;53.58;102252.56;5009242;28;20029;-69
2022/11/27 07:05:39;;;;;;;7.00;3.28;;;;;;;2.68;54.19;102250.63;5009597;28;20423;-68
2022/11/27 07:08:04;;;;;;;8.27;3.38;;;;;;;2.77;53.71;102250.75;5025378;28;20057;-70
2022/11/27 07:10:34;;;;;;;9.73;3.25;;;;;;;2.71;53.93;102244.63;4996103;23;20056;-71
2022/11/27 07:13:00;;;;;;;8.32;3.30;;;;;;;2.31;55.04;102250.06;4996512;28;20072;-70
2022/11/27 07:15:25;;;;;;;6.70;3.10;;;;;;;2.39;54.91;102241.56;4985273;28;20082;-71
2022/11/27 07:17:51;;;;;;;10.35;3.95;;;;;;;2.68;53.88;102240.31;4983582;28;20089;-71
2022/11/27 07:20:16;;;;;;;10.45;3.67;;;;;;;2.73;53.65;102240.38;4984537;28;20030;-70
2022/11/27 07:22:42;;;;;;;11.25;4.57;;;;;;;2.50;54.14;102237.47;4984112;28;20034;-70
2022/11/27 07:25:08;;;;;;;11.07;4.40;;;;;;;2.62;53.67;102235.03;5001633;28;20030;-71
2022/11/27 07:27:33;;;;;;;8.00;3.08;;;;;;;2.67;53.68;102228.25;4986323;28;20042;-71
2022/11/27 07:29:58;;;;;;;7.32;3.40;;;;;;;2.77;53.46;102231.81;4988150;28;20662;-71
2022/11/27 07:32:24;;;;;;;12.68;3.75;;;;;;;2.43;54.48;102230.47;4987354;28;20039;-70
2022/11/27 07:34:49;;;;;;;10.48;3.78;;;;;;;2.37;54.24;102231.22;4987337;28;20037;-70
2022/11/27 07:37:15;;;;;;;8.45;3.25;;;;;;;2.63;53.53;102230.78;4990229;28;20270;-71
2022/11/27 07:39:40;;;;;;;5.30;3.30;;;;;;;2.84;53.08;102231.06;5001513;28;20065;-71
2022/11/27 07:42:05;;;;;;;8.40;4.13;;;;;;;2.87;52.97;102233.72;4986963;28;20533;-69
2022/11/27 07:44:31;;;;;;;11.05;3.80;;;;;;;2.93;52.42;102225.16;4988031;28;20490;-72
2022/11/27 07:46:56;;;;;;;13.40;3.83;;;;;;;2.51;53.44;102222.00;4987957;28;20046;-71
2022/11/27 07:49:22;;;;;;;10.27;3.63;;;;;;;2.81;52.89;102232.75;4985199;28;20256;-72
2022/11/27 07:51:47;;;;;;;9.32;3.58;;;;;;;2.56;53.62;102234.97;4981620;28;20157;-73
2022/11/27 07:54:14;;;;;;;7.93;3.67;;;;;;;2.87;52.39;102240.59;4989391;28;20054;-69
2022/11/27 07:56:39;;;;;;;6.65;2.75;;;;;;;2.89;52.39;102231.13;4980050;28;20575;-71
2022/11/27 07:59:05;;;;;;;5.90;3.08;;;;;;;2.85;52.71;102231.97;4985116;28;20030;-74
2022/11/27 08:01:30;;;;;;;6.28;2.92;;;;;;;2.55;53.02;102228.06;4984811;28;20136;-71
2022/11/27 08:03:56;;;;;;;6.53;4.03;;;;;;;2.90;52.49;102225.13;4984500;28;20390;-71
2022/11/27 08:06:24;;;;;;;11.82;3.22;;;;;;;3.03;52.54;102223.59;4985548;28;20596;-75
2022/11/27 08:08:51;;;;;;;8.27;3.90;;;;;;;2.93;52.55;102225.16;4984073;28;20165;-72
2022/11/27 08:11:22;;;;;;;8.35;4.40;;;;;;;2.99;52.48;102212.34;4990621;28;20042;-69
2022/11/27 08:13:48;;;;;;;10.57;3.90;;;;;;;3.36;51.88;102194.75;4983983;28;20027;-73
2022/11/27 08:16:16;;;;;;;5.20;3.10;;;;;;;3.51;51.55;102174.19;4989914;28;20512;-71
2022/11/27 08:18:41;;;;;;;4.93;2.85;;;;;;;3.63;51.25;102172.59;4985679;28;20044;-71
2022/11/27 08:21:07;;;;;;;7.32;3.60;;;;;;;3.41;51.42;102169.81;4989202;28;20111;-70
2022/11/27 08:23:33;;;;;;;11.38;3.55;;;;;;;3.25;51.60;102165.25;4988100;28;20115;-74
2022/11/27 08:25:58;;;;;;;6.70;3.17;;;;;;;3.42;50.86;102168.09;4992681;28;20065;-74
2022/11/27 08:28:23;;;;;;;8.18;3.53;;;;;;;3.57;50.62;102168.25;4989603;28;20061;-69
2022/11/27 08:30:59;;;;;;;5.78;2.60;;;;;;;3.32;51.31;102172.28;4986549;28;20049;-69
2022/11/27 08:33:25;;;;;;;6.53;3.75;;;;;;;3.66;49.83;102162.31;4989535;28;20038;-71
2022/11/27 08:35:50;;;;;;;5.82;3.03;;;;;;;3.44;50.67;102162.06;4990778;28;20123;-69
2022/11/27 08:38:16;;;;;;;6.47;2.83;;;;;;;3.24;51.06;102160.97;4988929;28;20033;-69
2022/11/27 08:40:42;;;;;;;5.90;2.83;;;;;;;3.43;50.51;102157.78;4984499;28;20093;-71
2022/11/27 08:43:08;;;;;;;5.50;3.42;;;;;;;3.29;50.77;102151.56;4991185;28;20030;-68
2022/11/27 08:45:37;;;;;;;7.80;3.13;;;;;;;3.26;50.53;102149.78;4987427;28;22235;-73
2022/11/27 08:48:02;;;;;;;4.20;3.03;;;;;;;3.52;50.12;102144.06;4990854;28;20061;-71
2022/11/27 08:50:28;;;;;;;7.55;3.08;;;;;;;3.40;50.45;102149.97;4987668;28;20129;-69
2022/11/27 08:52:53;;;;;;;8.52;3.28;;;;;;;3.41;50.44;102167.22;4989996;28;20030;-69
2022/11/27 08:55:18;;;;;;;7.38;2.63;;;;;;;3.62;50.00;102165.69;4989679;28;20042;-69
2022/11/27 08:57:44;;;;;;;8.85;3.42;;;;;;;3.66;49.34;102167.47;4985920;28;20077;-69
2022/11/27 09:00:10;;;;;;;6.05;3.53;;;;;;;3.81;49.88;102175.38;4990408;28;20093;-69
2022/11/27 09:02:36;;;;;;;5.50;2.40;;;;;;;3.89;49.48;102180.59;4988777;28;20026;-70
2022/11/27 09:05:04;;;;;;;7.50;3.28;;;;;;;3.96;49.17;102187.56;4990471;28;20034;-69
2022/11/27 09:07:30;;;;;;;6.45;2.63;;;;;;;3.99;49.69;102191.06;4984675;28;20515;-70
2022/11/27 09:09:55;;;;;;;9.25;3.97;;;;;;;3.72;49.93;102199.44;4973104;28;20809;-69
2022/11/27 09:12:21;;;;;;;7.43;3.30;;;;;;;3.67;49.61;102195.03;4991905;28;20120;-71
2022/11/27 09:14:46;;;;;;;13.13;4.80;;;;;;;4.04;49.53;102192.81;4985639;28;20500;-69
2022/11/27 09:17:12;;;;;;;12.20;3.35;;;;;;;3.75;49.69;102194.28;4992136;28;20038;-68
2022/11/27 09:19:37;;;;;;;9.63;2.70;;;;;;;3.91;49.14;102190.09;4992693;28;20484;-70
2022/11/27 09:22:05;;;;;;;7.15;3.42;;;;;;;3.97;49.40;102197.94;4991416;28;20057;-69
2022/11/27 09:24:30;;;;;;;8.25;3.05;;;;;;;3.86;50.12;102191.78;4990005;28;20049;-69
2022/11/27 09:26:56;;;;;;;5.18;2.75;;;;;;;4.18;49.16;102193.78;4995262;28;20069;-69
2022/11/27 09:29:21;;;;;;;8.25;2.88;;;;;;;3.98;49.32;102189.34;4997059;28;20090;-69
2022/11/27 09:31:47;;;;;;;7.72;3.30;;;;;;;3.97;49.37;102194.47;5000177;28;20069;-69
2022/11/27 09:34:13;;;;;;;11.98;2.90;;;;;;;4.07;49.27;102190.25;4991413;28;20035;-69
2022/11/27 09:36:40;;;;;;;10.85;3.53;;;;;;;3.96;49.16;102188.44;4979227;28;20046;-70
2022/11/27 09:39:06;;;;;;;15.45;3.47;;;;;;;4.05;48.91;102186.78;4995352;28;20184;-70
2022/11/27 09:41:43;;;;;;;6.68;2.42;;;;;;;4.27;48.42;102192.97;4986832;28;20531;-70
2022/11/27 09:44:15;;;;;;;7.93;3.83;;;;;;;4.19;48.61;102190.34;4989977;28;20034;-70
2022/11/27 09:46:41;;;;;;;7.63;3.75;;;;;;;4.14;48.30;102192.00;4987909;28;20042;-69
2022/11/27 09:49:12;;;;;;;5.00;2.80;;;;;;;3.96;48.92;102183.28;4989091;28;20083;-68
2022/11/27 09:51:52;;;;;;;3.63;2.00;;;;;;;4.19;48.77;102177.41;4987648;28;20052;-69
2022/11/27 09:54:27;;;;;;;5.05;3.35;;;;;;;4.15;48.45;102176.50;4988391;28;20041;-70
2022/11/27 09:56:54;;;;;;;10.30;3.75;;;;;;;4.14;48.75;102173.91;4993744;28;20877;-70
2022/11/27 09:59:24;;;;;;;11.85;3.17;;;;;;;4.15;48.34;102173.91;4985968;28;20065;-69
2022/11/27 10:01:50;;;;;;;7.38;2.60;;;;;;;3.92;48.93;102171.16;4985586;28;20113;-70
2022/11/27 10:04:18;;;;;;;7.75;2.67;;;;;;;4.04;48.81;102165.22;4987718;28;20034;-70
2022/11/27 10:06:57;;;;;;;8.68;3.17;;;;;;;4.03;48.93;102166.09;4986866;28;20038;-70
2022/11/27 10:09:28;;;;;;;8.57;3.33;;;;;;;4.00;49.07;102156.53;4988949;28;20051;-69
2022/11/27 10:12:18;;;;;;;7.00;2.95;;;;;;;4.20;48.50;102166.19;4986492;28;20046;-69
2022/11/27 10:14:56;;;;;;;5.28;2.78;;;;;;;4.16;48.98;102161.84;4987695;28;20295;-70
2022/11/27 10:17:31;;;;;;;5.75;2.97;;;;;;;4.08;48.75;102148.88;4989277;28;20045;-69
2022/11/27 10:20:16;;;;;;;5.82;2.58;;;;;;;4.12;49.08;102152.31;4989268;28;20080;-68
2022/11/27 10:22:51;;;;;;;6.30;3.03;;;;;;;4.15;48.87;102148.03;4983617;28;20053;-69
2022/11/27 10:25:44;;;;;;;5.65;2.90;;;;;;;4.35;48.33;102171.47;4985056;28;20864;-69
2022/11/27 10:28:09;;;;;;;6.20;3.28;;;;;;;4.47;48.38;102164.66;4985746;28;20361;-69
2022/11/27 10:30:43;;;;;;;9.05;3.60;;;;;;;4.31;48.27;102169.72;4984312;28;20199;-70
2022/11/27 10:33:17;;;;;;;7.05;2.83;;;;;;;4.02;49.21;102167.78;4988782;28;20368;-69
2022/11/27 10:35:46;;;;;;;6.90;1.92;;;;;;;4.37;48.36;102151.66;4969483;28;20111;-69
2022/11/27 10:38:20;;;;;;;5.97;2.88;;;;;;;4.53;48.51;102155.19;4983291;28;20053;-69
2022/11/27 10:40:53;;;;;;;6.03;2.67;;;;;;;4.63;48.07;102148.34;4991819;28;20042;-69
2022/11/27 10:43:21;;;;;;;5.50;2.65;;;;;;;4.59;48.23;102150.06;4983470;28;20069;-70
2022/11/27 10:45:51;;;;;;;7.32;2.97;;;;;;;4.34;48.31;102140.41;4984535;28;20049;-69
2022/11/27 10:48:17;;;;;;;6.35;2.72;;;;;;;4.47;47.91;102138.75;4984876;28;20080;-68
2022/11/27 10:50:44;;;;;;;5.40;2.72;;;;;;;4.54;47.79;102140.53;4985106;28;20137;-69
2022/11/27 10:53:18;;;;;;;8.25;2.70;;;;;;;4.59;47.92;102137.13;4987253;28;20471;-69
2022/11/27 10:56:02;;;;;;;5.63;3.72;;;;;;;4.52;47.50;102137.06;4991337;28;20108;-69
2022/11/27 10:58:41;;;;;;;8.93;2.97;;;;;;;4.39;47.87;102131.81;4983117;28;20049;-71
2022/11/27 11:01:13;;;;;;;8.05;2.65;;;;;;;4.37;48.17;102130.94;4981887;28;20050;-70
2022/11/27 11:03:38;;;;;;;7.88;2.97;;;;;;;4.51;48.27;102119.81;4985211;28;20041;-68
2022/11/27 11:06:08;;;;;;;4.90;2.97;;;;;;;4.58;48.23;102126.72;4980460;28;20046;-70
2022/11/27 11:08:35;;;;;;;5.07;3.15;;;;;;;4.47;47.83;102120.63;4980462;28;20160;-68
2022/11/27 11:11:06;;;;;;;7.60;3.20;;;;;;;4.51;48.19;102118.06;4980679;28;20345;-69
2022/11/27 11:13:41;;;;;;;10.57;3.03;;;;;;;4.58;48.30;102104.28;4982883;28;20558;-68
2022/11/27 11:16:10;;;;;;;8.90;3.10;;;;;;;4.36;48.72;102105.94;4991923;28;20038;-67
2022/11/27 11:18:50;;;;;;;6.97;3.47;;;;;;;4.32;48.97;102099.00;4981675;28;20559;-69
2022/11/27 11:21:18;;;;;;;7.03;2.30;;;;;;;4.43;48.84;102106.78;4990596;28;20076;-69
2022/11/27 11:23:57;;;;;;;6.60;2.17;;;;;;;4.33;49.44;102098.13;4989233;28;20512;-69
2022/11/27 11:26:30;;;;;;;5.93;3.28;;;;;;;4.43;49.41;102097.34;4983065;28;20092;-69
2022/11/27 11:28:58;;;;;;;6.15;2.13;;;;;;;4.18;49.91;102090.25;4988961;28;21392;-69
2022/11/27 11:31:35;;;;;;;4.75;2.60;;;;;;;4.42;49.16;102094.72;4981726;28;20048;-69
2022/11/27 11:34:29;;;;;;;7.15;2.90;;;;;;;4.13;50.29;102092.81;4986627;28;20146;-69
2022/11/27 11:36:56;;;;;;;8.27;2.70;;;;;;;4.29;49.71;102083.44;4988567;28;20041;-68